Time;durP1;ratioP1;P1;durP2;ratioP2;P2;SDS_P1;SDS_P2;PMS_P1;PMS_P2;Temp;Humidity;BMP_temperature;BMP_pressure;BME280_temperature;BME280_humidity;BME280_pressure;Samples;Min_cycle;Max_cycle;Signal;HPM_P1;HPM_P2
2023/08/04 00:00:54;;;;;;;14.93;5.85;;;;;;;14.07;100.00;100898.09;6136095;23;20006;-83
2023/08/04 00:03:20;;;;;;;15.38;5.80;;;;;;;14.08;100.00;100900.56;6135307;23;20006;-82
2023/08/04 00:05:45;;;;;;;14.05;5.97;;;;;;;14.05;100.00;100905.41;6177940;23;20008;-84
2023/08/04 00:08:10;;;;;;;15.50;6.05;;;;;;;14.07;100.00;100908.75;6173301;23;20021;-84
2023/08/04 00:10:36;;;;;;;13.35;6.15;;;;;;;14.04;100.00;100906.44;6172424;23;20009;-84
2023/08/04 00:13:01;;;;;;;17.83;5.90;;;;;;;13.93;100.00;100894.38;6172992;23;20006;-84
2023/08/04 00:15:26;;;;;;;13.93;5.95;;;;;;;14.00;100.00;100908.63;6174017;23;20033;-83
2023/08/04 00:17:52;;;;;;;14.85;6.05;;;;;;;13.89;100.00;100901.09;6168052;23;20010;-84
2023/08/04 00:20:17;;;;;;;23.85;6.22;;;;;;;13.81;100.00;100900.16;6133700;23;20096;-84
2023/08/04 00:22:42;;;;;;;14.73;6.40;;;;;;;13.80;100.00;100890.50;6157719;23;20005;-84
2023/08/04 00:25:08;;;;;;;17.27;6.32;;;;;;;13.81;100.00;100900.16;6131413;23;20006;-83
2023/08/04 00:27:34;;;;;;;18.40;6.65;;;;;;;13.93;100.00;100923.72;6131141;23;20051;-83
2023/08/04 00:29:59;;;;;;;19.88;7.20;;;;;;;13.81;100.00;100910.81;6157067;23;20430;-83
2023/08/04 00:32:25;;;;;;;18.60;6.50;;;;;;;13.87;100.00;100913.78;6157131;23;20016;-84
2023/08/04 00:34:50;;;;;;;16.42;6.47;;;;;;;13.88;100.00;100915.44;6156551;23;20009;-82
2023/08/04 00:37:15;;;;;;;15.10;6.20;;;;;;;13.82;100.00;100917.81;6157238;23;20012;-84
2023/08/04 00:39:41;;;;;;;20.83;6.80;;;;;;;13.73;100.00;100905.59;6157138;23;20335;-84
2023/08/04 00:42:06;;;;;;;18.80;7.15;;;;;;;13.81;100.00;100923.34;6159141;23;20033;-83
2023/08/04 00:44:32;;;;;;;18.05;6.75;;;;;;;13.69;100.00;100918.44;6160389;23;20005;-83
2023/08/04 00:46:58;;;;;;;18.38;7.18;;;;;;;13.68;100.00;100918.63;6133755;23;20009;-83
2023/08/04 00:49:23;;;;;;;16.98;7.00;;;;;;;13.79;100.00;100939.50;6132443;23;20005;-84
2023/08/04 00:51:49;;;;;;;17.30;6.80;;;;;;;13.68;100.00;100915.94;6158810;23;20390;-84
2023/08/04 00:54:14;;;;;;;20.02;7.00;;;;;;;13.69;100.00;100922.94;6158546;23;20009;-83
2023/08/04 00:56:40;;;;;;;15.18;6.85;;;;;;;13.79;100.00;100934.19;6158853;23;20013;-83
2023/08/04 00:59:06;;;;;;;17.45;6.88;;;;;;;13.80;100.00;100945.66;6132946;23;20093;-84
2023/08/04 01:01:31;;;;;;;19.42;6.85;;;;;;;13.74;100.00;100933.03;6132376;23;20440;-85
2023/08/04 01:03:57;;;;;;;17.50;7.20;;;;;;;13.73;100.00;100932.22;6158756;23;20029;-84
2023/08/04 01:06:28;;;;;;;16.08;7.00;;;;;;;13.76;100.00;100937.19;6132315;23;20010;-83
2023/08/04 01:09:21;;;;;;;16.13;7.15;;;;;;;13.73;100.00;100950.88;6158492;23;20008;-84
2023/08/04 01:11:55;;;;;;;15.93;6.85;;;;;;;13.75;100.00;100943.53;6146621;23;20013;-84
2023/08/04 01:14:22;;;;;;;19.23;7.15;;;;;;;13.58;100.00;100926.88;6130966;23;20006;-84
2023/08/04 01:16:47;;;;;;;15.60;7.20;;;;;;;13.62;100.00;100928.13;6157323;23;20002;-84
2023/08/04 01:19:12;;;;;;;13.65;7.35;;;;;;;13.63;100.00;100944.97;6157783;23;20060;-84
2023/08/04 01:21:42;;;;;;;16.52;7.40;;;;;;;13.68;100.00;100958.59;6157443;23;20063;-84
2023/08/04 01:24:09;;;;;;;18.65;7.40;;;;;;;13.47;100.00;100943.25;6157798;23;20009;-84
2023/08/04 01:26:37;;;;;;;15.27;7.47;;;;;;;13.59;100.00;100955.97;6157640;23;20005;-84
2023/08/04 01:29:03;;;;;;;15.38;7.15;;;;;;;13.50;100.00;100951.72;6132175;23;20149;-85
2023/08/04 01:31:29;;;;;;;18.40;7.30;;;;;;;13.58;100.00;100953.50;6158241;23;20382;-84
2023/08/04 01:33:55;;;;;;;16.88;7.60;;;;;;;13.61;100.00;100954.97;6157902;23;20310;-83
2023/08/04 01:36:20;;;;;;;17.73;7.05;;;;;;;13.61;100.00;100966.44;6158229;23;20009;-84
2023/08/04 01:38:45;;;;;;;18.10;7.65;;;;;;;13.61;100.00;100968.31;6158063;23;20066;-84
2023/08/04 01:41:11;;;;;;;16.27;7.15;;;;;;;13.53;100.00;100954.03;6158142;23;20013;-84
2023/08/04 01:43:36;;;;;;;15.02;7.40;;;;;;;13.52;100.00;100955.03;6157873;23;20012;-84
2023/08/04 01:46:01;;;;;;;18.73;7.20;;;;;;;13.48;100.00;100953.75;6157835;23;20010;-83
2023/08/04 01:48:27;;;;;;;21.58;7.78;;;;;;;13.57;100.00;100962.50;6158388;23;20084;-83
2023/08/04 01:50:53;;;;;;;15.60;7.10;;;;;;;13.66;100.00;100971.28;6157360;23;20010;-83
2023/08/04 01:53:18;;;;;;;17.88;7.45;;;;;;;13.63;100.00;100975.13;6156003;23;20489;-84
2023/08/04 01:55:47;;;;;;;17.70;7.32;;;;;;;13.57;100.00;100962.50;6155324;23;20033;-84
2023/08/04 01:58:12;;;;;;;16.10;7.53;;;;;;;13.48;100.00;100948.41;6156813;23;20006;-84
2023/08/04 02:00:37;;;;;;;17.88;7.65;;;;;;;13.57;100.00;100958.00;6157899;23;20012;-84
2023/08/04 02:03:03;;;;;;;15.43;7.20;;;;;;;13.71;100.00;100976.88;6157954;23;20009;-83
2023/08/04 02:05:28;;;;;;;16.27;7.72;;;;;;;13.61;100.00;100970.97;6157975;23;20037;-83
2023/08/04 02:07:53;;;;;;;14.23;6.90;;;;;;;13.52;100.00;100954.22;6157438;23;20016;-84
2023/08/04 02:10:19;;;;;;;17.00;7.88;;;;;;;13.68;100.00;100979.91;6157952;23;20012;-83
